EWG6Y EDDL-EDDM
Flight info
| Callsign | EWG6Y |
|---|---|
| Flight time | 0h 52m |
| Altitude | 31000 |
| Route | DODEN7Z DODEN Y853 BOMBI T104 ROKIL |
| Aircraft | A320/M-SDE2E3FGIJ1RWXYZ/HB1 |
Departure
| Time | 2026-05-07 14:45 |
|---|---|
| Airport | Düsseldorf Airport (EDDL) |
Arrival
| Time | 2026-05-07 15:38 |
|---|---|
| Airport | Munich Airport (EDDM) |
| Time | Latitude | Longitude | Altitude | Speed | Heading |
|---|---|---|---|---|---|
| 2026-05-07 14:30 | 51.28150 | 6.76545 | 124 ft | 0 kts | 97° |
| 2026-05-07 14:38 | 51.28152 | 6.76516 | 124 ft | 4 kts | 95° |
| 2026-05-07 14:38 | 51.28154 | 6.76474 | 125 ft | 4 kts | 87° |
| 2026-05-07 14:38 | 51.28149 | 6.76435 | 124 ft | 4 kts | 50° |
| 2026-05-07 14:38 | 51.28140 | 6.76423 | 124 ft | 4 kts | 6° |
| 2026-05-07 14:39 | 51.28167 | 6.76428 | 125 ft | 4 kts | 7° |
| 2026-05-07 14:39 | 51.28174 | 6.76430 | 126 ft | 0 kts | 7° |
| 2026-05-07 14:41 | 51.28188 | 6.76432 | 127 ft | 5 kts | 7° |
| 2026-05-07 14:41 | 51.28241 | 6.76449 | 127 ft | 11 kts | 26° |
| 2026-05-07 14:42 | 51.28307 | 6.76498 | 122 ft | 13 kts | 332° |
| 2026-05-07 14:42 | 51.28303 | 6.76384 | 125 ft | 11 kts | 232° |
| 2026-05-07 14:42 | 51.28249 | 6.76273 | 125 ft | 15 kts | 233° |
| 2026-05-07 14:42 | 51.28177 | 6.76122 | 129 ft | 19 kts | 233° |
| 2026-05-07 14:43 | 51.28097 | 6.75954 | 127 ft | 20 kts | 232° |
| 2026-05-07 14:43 | 51.28012 | 6.75773 | 127 ft | 21 kts | 233° |
| 2026-05-07 14:43 | 51.27919 | 6.75579 | 127 ft | 23 kts | 232° |
| 2026-05-07 14:43 | 51.27843 | 6.75414 | 124 ft | 11 kts | 245° |
| 2026-05-07 14:44 | 51.27875 | 6.75320 | 123 ft | 11 kts | 333° |
| 2026-05-07 14:44 | 51.27981 | 6.75272 | 124 ft | 20 kts | 19° |
| 2026-05-07 14:44 | 51.28093 | 6.75476 | 124 ft | 36 kts | 52° |
| 2026-05-07 14:44 | 51.28395 | 6.76109 | 128 ft | 104 kts | 52° |
| 2026-05-07 14:45 | 51.28952 | 6.77283 | 134 ft | 158 kts | 52° |
| 2026-05-07 14:45 | 51.29604 | 6.78700 | 680 ft | 160 kts | 50° |
| 2026-05-07 14:45 | 51.30267 | 6.80123 | 1444 ft | 158 kts | 50° |
| 2026-05-07 14:45 | 51.30930 | 6.81517 | 2142 ft | 157 kts | 50° |
| 2026-05-07 14:46 | 51.31592 | 6.82900 | 2778 ft | 156 kts | 50° |
| 2026-05-07 14:46 | 51.32252 | 6.84276 | 3335 ft | 157 kts | 51° |
| 2026-05-07 14:46 | 51.32955 | 6.85740 | 3627 ft | 177 kts | 51° |
| 2026-05-07 14:46 | 51.33742 | 6.87419 | 3875 ft | 200 kts | 52° |
| 2026-05-07 14:47 | 51.34536 | 6.89410 | 4167 ft | 226 kts | 63° |
| 2026-05-07 14:47 | 51.35048 | 6.91928 | 4565 ft | 252 kts | 79° |
| 2026-05-07 14:47 | 51.35093 | 6.94781 | 5200 ft | 266 kts | 96° |
| 2026-05-07 14:47 | 51.34788 | 6.97731 | 6046 ft | 271 kts | 98° |
| 2026-05-07 14:48 | 51.34480 | 7.00723 | 6889 ft | 274 kts | 98° |
| 2026-05-07 14:48 | 51.34172 | 7.03752 | 7711 ft | 278 kts | 98° |
| 2026-05-07 14:48 | 51.33862 | 7.06834 | 8534 ft | 282 kts | 99° |
| 2026-05-07 14:48 | 51.33545 | 7.09973 | 9346 ft | 287 kts | 99° |
| 2026-05-07 14:49 | 51.33224 | 7.13161 | 10116 ft | 293 kts | 99° |
| 2026-05-07 14:49 | 51.32701 | 7.16327 | 10833 ft | 298 kts | 112° |
| 2026-05-07 14:49 | 51.31693 | 7.19290 | 11095 ft | 320 kts | 127° |
| 2026-05-07 14:49 | 51.30124 | 7.21984 | 11339 ft | 340 kts | 136° |
| 2026-05-07 14:50 | 51.28399 | 7.24664 | 11882 ft | 350 kts | 136° |
| 2026-05-07 14:50 | 51.26641 | 7.27405 | 12581 ft | 354 kts | 136° |
| 2026-05-07 14:50 | 51.24871 | 7.30183 | 13302 ft | 359 kts | 136° |
| 2026-05-07 14:50 | 51.23081 | 7.33004 | 13953 ft | 364 kts | 136° |
| 2026-05-07 14:51 | 51.21271 | 7.35854 | 14602 ft | 367 kts | 136° |
| 2026-05-07 14:51 | 51.19473 | 7.38687 | 15255 ft | 369 kts | 136° |
| 2026-05-07 14:51 | 51.17641 | 7.41569 | 15900 ft | 372 kts | 136° |
| 2026-05-07 14:51 | 51.15790 | 7.44476 | 16534 ft | 374 kts | 136° |
| 2026-05-07 14:52 | 51.13921 | 7.47385 | 17173 ft | 377 kts | 137° |
| 2026-05-07 14:52 | 51.12025 | 7.50296 | 17797 ft | 380 kts | 137° |
| 2026-05-07 14:52 | 51.10105 | 7.53223 | 18407 ft | 383 kts | 137° |
| 2026-05-07 14:52 | 51.08169 | 7.56166 | 18935 ft | 386 kts | 137° |
| 2026-05-07 14:53 | 51.06216 | 7.59130 | 19485 ft | 389 kts | 137° |
| 2026-05-07 14:53 | 51.04246 | 7.62127 | 19999 ft | 393 kts | 137° |
| 2026-05-07 14:53 | 51.02261 | 7.65146 | 20516 ft | 397 kts | 137° |
| 2026-05-07 14:53 | 51.00286 | 7.68149 | 21068 ft | 399 kts | 137° |
| 2026-05-07 14:54 | 50.98274 | 7.71204 | 21604 ft | 402 kts | 137° |
| 2026-05-07 14:54 | 50.96136 | 7.74109 | 22117 ft | 404 kts | 146° |
| 2026-05-07 14:54 | 50.93764 | 7.76529 | 22619 ft | 406 kts | 149° |
| 2026-05-07 14:54 | 50.91352 | 7.78898 | 23113 ft | 409 kts | 149° |
| 2026-05-07 14:55 | 50.88920 | 7.81285 | 23603 ft | 412 kts | 149° |
| 2026-05-07 14:55 | 50.86475 | 7.83685 | 24016 ft | 415 kts | 149° |
| 2026-05-07 14:55 | 50.84017 | 7.86099 | 24406 ft | 417 kts | 149° |
| 2026-05-07 14:55 | 50.81539 | 7.88535 | 24787 ft | 420 kts | 149° |
| 2026-05-07 14:56 | 50.79050 | 7.90976 | 25168 ft | 422 kts | 149° |
| 2026-05-07 14:56 | 50.76579 | 7.93389 | 25529 ft | 424 kts | 149° |
| 2026-05-07 14:56 | 50.74057 | 7.95847 | 25892 ft | 426 kts | 149° |
| 2026-05-07 14:56 | 50.71531 | 7.98312 | 26252 ft | 429 kts | 149° |
| 2026-05-07 14:57 | 50.68985 | 8.00797 | 26607 ft | 431 kts | 149° |
| 2026-05-07 14:57 | 50.66429 | 8.03289 | 26952 ft | 433 kts | 149° |
| 2026-05-07 14:57 | 50.63856 | 8.05793 | 27298 ft | 435 kts | 149° |
| 2026-05-07 14:57 | 50.61268 | 8.08310 | 27661 ft | 438 kts | 148° |
| 2026-05-07 14:58 | 50.58809 | 8.11161 | 27989 ft | 440 kts | 141° |
| 2026-05-07 14:58 | 50.56445 | 8.14278 | 28295 ft | 443 kts | 141° |
| 2026-05-07 14:58 | 50.54103 | 8.17362 | 28603 ft | 445 kts | 141° |
| 2026-05-07 14:58 | 50.51720 | 8.20490 | 28913 ft | 447 kts | 141° |
| 2026-05-07 14:59 | 50.49325 | 8.23628 | 29211 ft | 449 kts | 141° |
| 2026-05-07 14:59 | 50.46920 | 8.26772 | 29499 ft | 451 kts | 141° |
| 2026-05-07 14:59 | 50.44502 | 8.29928 | 29778 ft | 453 kts | 141° |
| 2026-05-07 14:59 | 50.42073 | 8.33092 | 30045 ft | 455 kts | 141° |
| 2026-05-07 15:00 | 50.39630 | 8.36272 | 30301 ft | 456 kts | 141° |
| 2026-05-07 15:00 | 50.37185 | 8.39456 | 30538 ft | 457 kts | 141° |
| 2026-05-07 15:00 | 50.34736 | 8.42638 | 30751 ft | 458 kts | 141° |
| 2026-05-07 15:00 | 50.32273 | 8.45831 | 30960 ft | 460 kts | 141° |
| 2026-05-07 15:01 | 50.27392 | 8.52139 | 31059 ft | 447 kts | 141° |
| 2026-05-07 15:01 | 50.22622 | 8.58283 | 31059 ft | 443 kts | 141° |
| 2026-05-07 15:02 | 50.17898 | 8.64362 | 31056 ft | 442 kts | 141° |
| 2026-05-07 15:02 | 50.13140 | 8.70464 | 31058 ft | 442 kts | 141° |
| 2026-05-07 15:03 | 50.08384 | 8.76549 | 31056 ft | 442 kts | 141° |
| 2026-05-07 15:03 | 50.03655 | 8.82675 | 31052 ft | 442 kts | 140° |
| 2026-05-07 15:04 | 49.99104 | 8.89103 | 31050 ft | 442 kts | 137° |
| 2026-05-07 15:04 | 49.94604 | 8.95638 | 31051 ft | 442 kts | 138° |
| 2026-05-07 15:05 | 49.90097 | 9.02065 | 31051 ft | 442 kts | 139° |
| 2026-05-07 15:05 | 49.85521 | 9.08468 | 31055 ft | 442 kts | 139° |
| 2026-05-07 15:06 | 49.80944 | 9.14845 | 31046 ft | 442 kts | 139° |
| 2026-05-07 15:06 | 49.76400 | 9.21189 | 31043 ft | 442 kts | 139° |
| 2026-05-07 15:07 | 49.71816 | 9.27582 | 31043 ft | 443 kts | 139° |
| 2026-05-07 15:07 | 49.67231 | 9.33967 | 31047 ft | 443 kts | 139° |
| 2026-05-07 15:08 | 49.62682 | 9.40280 | 31047 ft | 443 kts | 138° |
| 2026-05-07 15:08 | 49.58510 | 9.47293 | 30842 ft | 444 kts | 132° |
| 2026-05-07 15:09 | 49.56475 | 9.50869 | 30578 ft | 443 kts | 132° |
| 2026-05-07 15:09 | 49.54444 | 9.54430 | 30330 ft | 441 kts | 132° |
| 2026-05-07 15:09 | 49.52419 | 9.57972 | 30077 ft | 439 kts | 133° |
| 2026-05-07 15:09 | 49.50404 | 9.61493 | 29787 ft | 438 kts | 132° |
| 2026-05-07 15:10 | 49.48395 | 9.65005 | 29499 ft | 436 kts | 132° |
| 2026-05-07 15:10 | 49.46395 | 9.68499 | 29213 ft | 434 kts | 133° |
| 2026-05-07 15:10 | 49.45071 | 9.70807 | 29023 ft | 433 kts | 133° |
| 2026-05-07 15:10 | 49.42414 | 9.75439 | 28647 ft | 431 kts | 133° |
| 2026-05-07 15:11 | 49.40460 | 9.78834 | 28374 ft | 429 kts | 133° |
| 2026-05-07 15:11 | 49.38481 | 9.82264 | 28096 ft | 427 kts | 133° |
| 2026-05-07 15:11 | 49.37153 | 9.84559 | 27913 ft | 426 kts | 133° |
| 2026-05-07 15:11 | 49.34557 | 9.89039 | 27273 ft | 421 kts | 133° |
| 2026-05-07 15:12 | 49.33275 | 9.91252 | 26920 ft | 419 kts | 133° |
| 2026-05-07 15:12 | 49.31348 | 9.94573 | 26393 ft | 415 kts | 133° |
| 2026-05-07 15:12 | 49.29439 | 9.97888 | 25928 ft | 412 kts | 130° |
| 2026-05-07 15:12 | 49.27934 | 10.01527 | 25825 ft | 399 kts | 118° |
| 2026-05-07 15:13 | 49.26650 | 10.05224 | 25729 ft | 389 kts | 119° |
| 2026-05-07 15:13 | 49.25371 | 10.08908 | 25609 ft | 400 kts | 119° |
| 2026-05-07 15:13 | 49.24038 | 10.12740 | 25314 ft | 412 kts | 119° |
| 2026-05-07 15:13 | 49.22686 | 10.16627 | 25045 ft | 415 kts | 118° |
| 2026-05-07 15:14 | 49.21331 | 10.20529 | 24799 ft | 415 kts | 119° |
| 2026-05-07 15:14 | 49.19977 | 10.24431 | 24567 ft | 414 kts | 118° |
| 2026-05-07 15:14 | 49.18622 | 10.28332 | 24324 ft | 415 kts | 118° |
| 2026-05-07 15:14 | 49.17269 | 10.32220 | 24101 ft | 414 kts | 118° |
| 2026-05-07 15:15 | 49.15915 | 10.36104 | 23864 ft | 413 kts | 118° |
| 2026-05-07 15:15 | 49.14585 | 10.39920 | 23627 ft | 412 kts | 118° |
| 2026-05-07 15:15 | 49.13236 | 10.43782 | 23344 ft | 411 kts | 118° |
| 2026-05-07 15:15 | 49.11886 | 10.47625 | 22984 ft | 410 kts | 118° |
| 2026-05-07 15:16 | 49.10543 | 10.51445 | 22536 ft | 407 kts | 118° |
| 2026-05-07 15:16 | 49.09209 | 10.55244 | 22125 ft | 404 kts | 118° |
| 2026-05-07 15:16 | 49.07885 | 10.59010 | 21731 ft | 401 kts | 119° |
| 2026-05-07 15:16 | 49.06568 | 10.62756 | 21340 ft | 399 kts | 119° |
| 2026-05-07 15:17 | 49.05273 | 10.66420 | 20963 ft | 396 kts | 119° |
| 2026-05-07 15:17 | 49.03969 | 10.70098 | 20576 ft | 393 kts | 119° |
| 2026-05-07 15:17 | 49.02671 | 10.73757 | 20197 ft | 391 kts | 119° |
| 2026-05-07 15:17 | 49.01382 | 10.77392 | 19809 ft | 390 kts | 120° |
| 2026-05-07 15:18 | 49.00091 | 10.81025 | 19421 ft | 388 kts | 120° |
| 2026-05-07 15:18 | 48.98809 | 10.84631 | 19016 ft | 385 kts | 120° |
| 2026-05-07 15:18 | 48.97534 | 10.88209 | 18612 ft | 382 kts | 120° |
| 2026-05-07 15:18 | 48.96272 | 10.91748 | 18172 ft | 380 kts | 120° |
| 2026-05-07 15:19 | 48.95014 | 10.95265 | 17722 ft | 377 kts | 120° |
| 2026-05-07 15:19 | 48.93763 | 10.98756 | 17267 ft | 374 kts | 120° |
| 2026-05-07 15:19 | 48.92537 | 11.02178 | 16851 ft | 371 kts | 120° |
| 2026-05-07 15:19 | 48.91308 | 11.05612 | 16417 ft | 368 kts | 120° |
| 2026-05-07 15:20 | 48.90087 | 11.09023 | 16000 ft | 366 kts | 120° |
| 2026-05-07 15:20 | 48.88876 | 11.12404 | 15594 ft | 363 kts | 120° |
| 2026-05-07 15:20 | 48.87670 | 11.15763 | 15182 ft | 360 kts | 120° |
| 2026-05-07 15:20 | 48.86469 | 11.19093 | 14790 ft | 358 kts | 120° |
| 2026-05-07 15:21 | 48.85272 | 11.22401 | 14430 ft | 356 kts | 121° |
| 2026-05-07 15:21 | 48.84084 | 11.25684 | 14067 ft | 353 kts | 121° |
| 2026-05-07 15:21 | 48.82919 | 11.28901 | 13720 ft | 351 kts | 121° |
| 2026-05-07 15:21 | 48.81745 | 11.32141 | 13376 ft | 349 kts | 121° |
| 2026-05-07 15:22 | 48.80574 | 11.35368 | 12953 ft | 347 kts | 121° |
| 2026-05-07 15:22 | 48.79412 | 11.38570 | 12493 ft | 345 kts | 121° |
| 2026-05-07 15:22 | 48.78253 | 11.41756 | 12047 ft | 343 kts | 121° |
| 2026-05-07 15:22 | 48.77101 | 11.44918 | 11589 ft | 342 kts | 121° |
| 2026-05-07 15:23 | 48.75955 | 11.48066 | 11150 ft | 340 kts | 121° |
| 2026-05-07 15:23 | 48.74815 | 11.51189 | 10711 ft | 338 kts | 121° |
| 2026-05-07 15:23 | 48.73678 | 11.54295 | 10279 ft | 336 kts | 121° |
| 2026-05-07 15:23 | 48.72562 | 11.57346 | 10036 ft | 333 kts | 121° |
| 2026-05-07 15:24 | 48.71467 | 11.60343 | 10019 ft | 316 kts | 121° |
| 2026-05-07 15:24 | 48.70420 | 11.63205 | 10026 ft | 306 kts | 121° |
| 2026-05-07 15:24 | 48.69391 | 11.66006 | 10029 ft | 304 kts | 121° |
| 2026-05-07 15:24 | 48.68364 | 11.68801 | 10029 ft | 304 kts | 121° |
| 2026-05-07 15:25 | 48.67348 | 11.71556 | 10025 ft | 303 kts | 121° |
| 2026-05-07 15:25 | 48.66324 | 11.74328 | 9726 ft | 301 kts | 121° |
| 2026-05-07 15:25 | 48.65305 | 11.77085 | 9316 ft | 299 kts | 121° |
| 2026-05-07 15:25 | 48.64293 | 11.79831 | 8922 ft | 298 kts | 121° |
| 2026-05-07 15:26 | 48.63287 | 11.82559 | 8529 ft | 296 kts | 121° |
| 2026-05-07 15:26 | 48.62285 | 11.85274 | 8147 ft | 295 kts | 121° |
| 2026-05-07 15:26 | 48.61290 | 11.87971 | 7774 ft | 293 kts | 121° |
| 2026-05-07 15:26 | 48.60300 | 11.90656 | 7399 ft | 291 kts | 121° |
| 2026-05-07 15:27 | 48.59313 | 11.93319 | 7032 ft | 290 kts | 121° |
| 2026-05-07 15:27 | 48.58326 | 11.95971 | 6725 ft | 289 kts | 121° |
| 2026-05-07 15:27 | 48.57343 | 11.98612 | 6477 ft | 288 kts | 121° |
| 2026-05-07 15:27 | 48.56375 | 12.01214 | 6214 ft | 287 kts | 121° |
| 2026-05-07 15:28 | 48.55397 | 12.03841 | 5974 ft | 286 kts | 120° |
| 2026-05-07 15:28 | 48.54423 | 12.06456 | 5714 ft | 285 kts | 121° |
| 2026-05-07 15:28 | 48.53449 | 12.09064 | 5449 ft | 284 kts | 120° |
| 2026-05-07 15:28 | 48.52480 | 12.11659 | 5195 ft | 284 kts | 120° |
| 2026-05-07 15:29 | 48.51507 | 12.14233 | 5028 ft | 281 kts | 121° |
| 2026-05-07 15:29 | 48.50543 | 12.16760 | 5009 ft | 281 kts | 120° |
| 2026-05-07 15:29 | 48.49569 | 12.19311 | 5006 ft | 282 kts | 121° |
| 2026-05-07 15:29 | 48.48594 | 12.21878 | 5009 ft | 283 kts | 121° |
| 2026-05-07 15:30 | 48.47617 | 12.24445 | 5006 ft | 282 kts | 121° |
| 2026-05-07 15:30 | 48.46636 | 12.27018 | 5008 ft | 282 kts | 121° |
| 2026-05-07 15:30 | 48.45659 | 12.29581 | 5010 ft | 282 kts | 122° |
| 2026-05-07 15:30 | 48.44373 | 12.31768 | 5007 ft | 278 kts | 148° |
| 2026-05-07 15:31 | 48.42600 | 12.32719 | 5002 ft | 270 kts | 182° |
| 2026-05-07 15:31 | 48.40840 | 12.32007 | 4998 ft | 262 kts | 217° |
| 2026-05-07 15:31 | 48.39727 | 12.29934 | 5003 ft | 255 kts | 253° |
| 2026-05-07 15:31 | 48.39648 | 12.27315 | 5006 ft | 253 kts | 283° |
| 2026-05-07 15:32 | 48.39971 | 12.24700 | 4954 ft | 255 kts | 270° |
| 2026-05-07 15:32 | 48.39753 | 12.22107 | 4565 ft | 252 kts | 262° |
| 2026-05-07 15:32 | 48.39479 | 12.19509 | 4126 ft | 252 kts | 264° |
| 2026-05-07 15:32 | 48.39278 | 12.16935 | 3998 ft | 240 kts | 265° |
| 2026-05-07 15:33 | 48.39105 | 12.14531 | 3999 ft | 223 kts | 265° |
| 2026-05-07 15:33 | 48.38940 | 12.12269 | 4005 ft | 215 kts | 265° |
| 2026-05-07 15:33 | 48.38777 | 12.10035 | 4007 ft | 214 kts | 265° |
| 2026-05-07 15:33 | 48.38613 | 12.07811 | 4012 ft | 213 kts | 265° |
| 2026-05-07 15:34 | 48.38450 | 12.05613 | 4007 ft | 206 kts | 265° |
| 2026-05-07 15:34 | 48.38298 | 12.03572 | 4004 ft | 192 kts | 266° |
| 2026-05-07 15:34 | 48.38153 | 12.01620 | 4001 ft | 186 kts | 265° |
| 2026-05-07 15:34 | 48.38011 | 11.99699 | 3799 ft | 182 kts | 266° |
| 2026-05-07 15:35 | 48.37871 | 11.97821 | 3557 ft | 179 kts | 265° |
| 2026-05-07 15:35 | 48.37732 | 11.95969 | 3313 ft | 174 kts | 265° |
| 2026-05-07 15:35 | 48.37601 | 11.94237 | 3086 ft | 158 kts | 265° |
| 2026-05-07 15:35 | 48.37484 | 11.92676 | 2888 ft | 146 kts | 266° |
| 2026-05-07 15:36 | 48.37371 | 11.91180 | 2706 ft | 142 kts | 267° |
| 2026-05-07 15:36 | 48.37260 | 11.89694 | 2499 ft | 144 kts | 266° |
| 2026-05-07 15:36 | 48.37149 | 11.88174 | 2339 ft | 149 kts | 264° |
| 2026-05-07 15:36 | 48.37033 | 11.86639 | 2135 ft | 147 kts | 265° |
| 2026-05-07 15:37 | 48.36911 | 11.85081 | 1930 ft | 150 kts | 269° |
| 2026-05-07 15:37 | 48.36787 | 11.83533 | 1710 ft | 148 kts | 268° |
| 2026-05-07 15:37 | 48.36679 | 11.81993 | 1531 ft | 148 kts | 269° |
| 2026-05-07 15:37 | 48.36582 | 11.80528 | 1488 ft | 129 kts | 262° |
| 2026-05-07 15:38 | 48.36501 | 11.79583 | 1477 ft | 48 kts | 262° |
| 2026-05-07 15:38 | 48.36464 | 11.79144 | 1475 ft | 42 kts | 260° |
| 2026-05-07 15:38 | 48.36352 | 11.78817 | 1478 ft | 26 kts | 231° |
| 2026-05-07 15:38 | 48.36243 | 11.78592 | 1474 ft | 27 kts | 234° |
| 2026-05-07 15:39 | 48.36140 | 11.78473 | 1480 ft | 17 kts | 184° |
| 2026-05-07 15:39 | 48.36038 | 11.78512 | 1474 ft | 14 kts | 128° |
| 2026-05-07 15:39 | 48.36041 | 11.78646 | 1485 ft | 12 kts | 83° |
| 2026-05-07 15:39 | 48.36050 | 11.78764 | 1480 ft | 11 kts | 83° |
| 2026-05-07 15:40 | 48.36062 | 11.78911 | 1481 ft | 17 kts | 83° |
| 2026-05-07 15:40 | 48.36076 | 11.79096 | 1485 ft | 18 kts | 83° |
| 2026-05-07 15:40 | 48.36087 | 11.79241 | 1485 ft | 10 kts | 84° |
| 2026-05-07 15:40 | 48.36064 | 11.79320 | 1471 ft | 8 kts | 163° |
| 2026-05-07 15:41 | 48.35986 | 11.79334 | 1485 ft | 12 kts | 173° |
| 2026-05-07 15:41 | 48.35912 | 11.79365 | 1478 ft | 11 kts | 147° |
| 2026-05-07 15:41 | 48.35840 | 11.79387 | 1481 ft | 10 kts | 173° |
| 2026-05-07 15:41 | 48.35776 | 11.79398 | 1477 ft | 9 kts | 173° |
| 2026-05-07 15:42 | 48.35715 | 11.79409 | 1473 ft | 11 kts | 173° |
| 2026-05-07 15:42 | 48.35617 | 11.79426 | 1485 ft | 14 kts | 173° |
| 2026-05-07 15:42 | 48.35520 | 11.79442 | 1485 ft | 15 kts | 173° |
| 2026-05-07 15:42 | 48.35397 | 11.79464 | 1477 ft | 19 kts | 173° |
| 2026-05-07 15:43 | 48.35274 | 11.79485 | 1475 ft | 17 kts | 172° |
| 2026-05-07 15:43 | 48.35164 | 11.79504 | 1482 ft | 15 kts | 174° |
| 2026-05-07 15:43 | 48.35108 | 11.79494 | 1481 ft | 6 kts | 236° |
| 2026-05-07 15:43 | 48.35104 | 11.79438 | 1485 ft | 5 kts | 263° |
| 2026-05-07 15:44 | 48.35101 | 11.79395 | 1485 ft | 3 kts | 263° |
| 2026-05-07 15:44 | 48.35099 | 11.79368 | 1476 ft | 0 kts | 263° |